Archival Weather

Chicago O'Hare International

Chicago, Illinois (KORD)

Report from: Wednesday, July 19, 2023 1:51 AM CDT
Current time: Monday, July 22, 2024 6:49 AM CDT

Current weather – Weather history – Daily summaries
Weather forecast

Temperature18.3°C (64.9°F)
Dew point12.8°C (55.0°F)
Winds 3 kts (1.5 m/s, 3.5 mph) West (280°)
Visibility10 mi. (16.1 km)
Clouds Sky clear
Altimeter30.03 in.Hg (1017 mB)
Relative humidity70 %
Density altitude484 ft. (148 m)
Sea-level pressure101.7 kPa (1017 mB, 30.02 in.Hg)
Remarks System requires maintenance
Automated weather observing station with precipitation discriminator
Flight conditions Visual Meteorological Conditions
Raw dataKORD 190651Z 28003KT 10SM CLR 18/13 A3003 RMK AO2 SLP165 T01830128 $
An error has occurred. This application may no longer respond until reloaded. Reload 🗙